sensor_id;sensor_type;location;lat;lon;timestamp;P1;durP1;ratioP1;P2;durP2;ratioP2
5845;SDS011;2949;50.778;7.094;2024-01-15T00:00:39;24.47;;;10.20;;
5845;SDS011;2949;50.778;7.094;2024-01-15T00:03:05;27.23;;;10.07;;
5845;SDS011;2949;50.778;7.094;2024-01-15T00:05:30;25.47;;;10.40;;
5845;SDS011;2949;50.778;7.094;2024-01-15T00:07:56;22.20;;;9.77;;
5845;SDS011;2949;50.778;7.094;2024-01-15T00:10:21;21.03;;;10.80;;
5845;SDS011;2949;50.778;7.094;2024-01-15T00:12:48;32.33;;;11.17;;
5845;SDS011;2949;50.778;7.094;2024-01-15T00:15:13;19.63;;;8.17;;
5845;SDS011;2949;50.778;7.094;2024-01-15T00:17:39;22.97;;;10.53;;
5845;SDS011;2949;50.778;7.094;2024-01-15T00:20:04;27.13;;;9.43;;
5845;SDS011;2949;50.778;7.094;2024-01-15T00:22:31;20.20;;;8.90;;
5845;SDS011;2949;50.778;7.094;2024-01-15T00:24:57;21.13;;;9.77;;
5845;SDS011;2949;50.778;7.094;2024-01-15T00:27:22;26.33;;;10.20;;
5845;SDS011;2949;50.778;7.094;2024-01-15T00:29:48;27.40;;;7.53;;
5845;SDS011;2949;50.778;7.094;2024-01-15T00:32:15;20.13;;;9.43;;
5845;SDS011;2949;50.778;7.094;2024-01-15T00:34:41;29.23;;;10.90;;
5845;SDS011;2949;50.778;7.094;2024-01-15T00:37:06;22.97;;;9.80;;
5845;SDS011;2949;50.778;7.094;2024-01-15T00:39:32;38.23;;;12.00;;
5845;SDS011;2949;50.778;7.094;2024-01-15T00:41:57;22.73;;;10.30;;
5845;SDS011;2949;50.778;7.094;2024-01-15T00:44:23;27.10;;;11.27;;
5845;SDS011;2949;50.778;7.094;2024-01-15T00:46:49;29.40;;;10.97;;
5845;SDS011;2949;50.778;7.094;2024-01-15T00:49:14;38.27;;;11.40;;
5845;SDS011;2949;50.778;7.094;2024-01-15T00:51:40;28.97;;;10.23;;
5845;SDS011;2949;50.778;7.094;2024-01-15T00:54:06;24.30;;;9.50;;
5845;SDS011;2949;50.778;7.094;2024-01-15T00:56:32;26.30;;;9.83;;
5845;SDS011;2949;50.778;7.094;2024-01-15T00:58:57;17.20;;;9.67;;
5845;SDS011;2949;50.778;7.094;2024-01-15T01:01:23;30.47;;;10.90;;
5845;SDS011;2949;50.778;7.094;2024-01-15T01:03:48;33.00;;;12.13;;
5845;SDS011;2949;50.778;7.094;2024-01-15T01:06:14;33.47;;;11.63;;
5845;SDS011;2949;50.778;7.094;2024-01-15T01:08:39;27.20;;;10.83;;
5845;SDS011;2949;50.778;7.094;2024-01-15T01:11:05;27.07;;;11.00;;
5845;SDS011;2949;50.778;7.094;2024-01-15T01:13:32;29.87;;;10.30;;
5845;SDS011;2949;50.778;7.094;2024-01-15T01:15:57;31.07;;;11.40;;
5845;SDS011;2949;50.778;7.094;2024-01-15T01:18:23;30.80;;;11.40;;
5845;SDS011;2949;50.778;7.094;2024-01-15T01:20:48;26.93;;;10.20;;
5845;SDS011;2949;50.778;7.094;2024-01-15T01:23:14;25.63;;;10.07;;
5845;SDS011;2949;50.778;7.094;2024-01-15T01:25:40;25.83;;;10.20;;
5845;SDS011;2949;50.778;7.094;2024-01-15T01:28:05;33.83;;;10.70;;
5845;SDS011;2949;50.778;7.094;2024-01-15T01:30:31;24.60;;;10.67;;
5845;SDS011;2949;50.778;7.094;2024-01-15T01:32:56;35.07;;;11.97;;
5845;SDS011;2949;50.778;7.094;2024-01-15T01:35:22;30.97;;;11.43;;
5845;SDS011;2949;50.778;7.094;2024-01-15T01:37:47;29.33;;;11.80;;
5845;SDS011;2949;50.778;7.094;2024-01-15T01:40:13;31.60;;;11.90;;
5845;SDS011;2949;50.778;7.094;2024-01-15T01:42:39;33.63;;;11.73;;
5845;SDS011;2949;50.778;7.094;2024-01-15T01:45:04;25.20;;;9.70;;
5845;SDS011;2949;50.778;7.094;2024-01-15T01:47:30;31.37;;;11.50;;
5845;SDS011;2949;50.778;7.094;2024-01-15T01:49:57;29.20;;;13.40;;
5845;SDS011;2949;50.778;7.094;2024-01-15T01:52:22;25.20;;;11.90;;
5845;SDS011;2949;50.778;7.094;2024-01-15T01:54:48;40.67;;;14.20;;
5845;SDS011;2949;50.778;7.094;2024-01-15T01:57:14;34.80;;;13.13;;
5845;SDS011;2949;50.778;7.094;2024-01-15T01:59:41;36.30;;;13.80;;
5845;SDS011;2949;50.778;7.094;2024-01-15T02:02:06;32.70;;;11.70;;
5845;SDS011;2949;50.778;7.094;2024-01-15T02:04:32;40.30;;;11.97;;
5845;SDS011;2949;50.778;7.094;2024-01-15T02:06:59;34.47;;;12.60;;
5845;SDS011;2949;50.778;7.094;2024-01-15T02:09:25;28.93;;;12.30;;
5845;SDS011;2949;50.778;7.094;2024-01-15T02:11:50;37.27;;;13.97;;
5845;SDS011;2949;50.778;7.094;2024-01-15T02:14:16;26.53;;;11.80;;
5845;SDS011;2949;50.778;7.094;2024-01-15T02:16:42;39.83;;;12.20;;
5845;SDS011;2949;50.778;7.094;2024-01-15T02:19:14;46.67;;;12.67;;
5845;SDS011;2949;50.778;7.094;2024-01-15T02:21:40;35.77;;;13.90;;
5845;SDS011;2949;50.778;7.094;2024-01-15T02:24:05;31.33;;;14.80;;
5845;SDS011;2949;50.778;7.094;2024-01-15T02:26:31;26.40;;;10.50;;
5845;SDS011;2949;50.778;7.094;2024-01-15T02:29:00;32.10;;;14.90;;
5845;SDS011;2949;50.778;7.094;2024-01-15T02:31:26;30.50;;;13.50;;
5845;SDS011;2949;50.778;7.094;2024-01-15T02:33:52;32.30;;;13.17;;
5845;SDS011;2949;50.778;7.094;2024-01-15T02:36:17;39.73;;;14.53;;
5845;SDS011;2949;50.778;7.094;2024-01-15T02:38:43;36.33;;;12.70;;
5845;SDS011;2949;50.778;7.094;2024-01-15T02:41:09;36.23;;;12.33;;
5845;SDS011;2949;50.778;7.094;2024-01-15T02:43:34;34.97;;;12.77;;
5845;SDS011;2949;50.778;7.094;2024-01-15T02:46:00;33.43;;;12.93;;
5845;SDS011;2949;50.778;7.094;2024-01-15T02:48:25;38.00;;;15.10;;
5845;SDS011;2949;50.778;7.094;2024-01-15T02:50:51;31.17;;;13.97;;
5845;SDS011;2949;50.778;7.094;2024-01-15T02:53:16;29.63;;;13.07;;
5845;SDS011;2949;50.778;7.094;2024-01-15T02:55:42;34.03;;;12.70;;
5845;SDS011;2949;50.778;7.094;2024-01-15T02:58:07;27.53;;;12.70;;
5845;SDS011;2949;50.778;7.094;2024-01-15T03:00:33;27.13;;;12.53;;
5845;SDS011;2949;50.778;7.094;2024-01-15T03:02:58;42.30;;;14.53;;
5845;SDS011;2949;50.778;7.094;2024-01-15T03:05:24;31.47;;;13.40;;
5845;SDS011;2949;50.778;7.094;2024-01-15T03:07:49;31.87;;;14.03;;
5845;SDS011;2949;50.778;7.094;2024-01-15T03:10:15;35.37;;;14.70;;
5845;SDS011;2949;50.778;7.094;2024-01-15T03:12:40;31.97;;;12.43;;
5845;SDS011;2949;50.778;7.094;2024-01-15T03:15:06;29.07;;;12.50;;
5845;SDS011;2949;50.778;7.094;2024-01-15T03:17:31;24.20;;;11.17;;
5845;SDS011;2949;50.778;7.094;2024-01-15T03:19:57;30.23;;;12.90;;
5845;SDS011;2949;50.778;7.094;2024-01-15T03:22:22;31.30;;;13.00;;
5845;SDS011;2949;50.778;7.094;2024-01-15T03:24:48;29.63;;;12.40;;
5845;SDS011;2949;50.778;7.094;2024-01-15T03:27:13;28.30;;;11.43;;
5845;SDS011;2949;50.778;7.094;2024-01-15T03:29:39;27.57;;;13.10;;
5845;SDS011;2949;50.778;7.094;2024-01-15T03:32:05;24.67;;;12.03;;
5845;SDS011;2949;50.778;7.094;2024-01-15T03:34:31;26.80;;;11.90;;
5845;SDS011;2949;50.778;7.094;2024-01-15T03:36:57;27.90;;;11.60;;
5845;SDS011;2949;50.778;7.094;2024-01-15T03:39:23;25.87;;;11.33;;
5845;SDS011;2949;50.778;7.094;2024-01-15T03:41:49;27.33;;;11.20;;
5845;SDS011;2949;50.778;7.094;2024-01-15T03:44:14;23.40;;;10.27;;
5845;SDS011;2949;50.778;7.094;2024-01-15T03:46:40;28.70;;;10.00;;
5845;SDS011;2949;50.778;7.094;2024-01-15T03:49:05;25.50;;;11.50;;
5845;SDS011;2949;50.778;7.094;2024-01-15T03:51:31;29.80;;;11.60;;
5845;SDS011;2949;50.778;7.094;2024-01-15T03:53:56;26.77;;;12.20;;
5845;SDS011;2949;50.778;7.094;2024-01-15T03:56:22;25.60;;;11.10;;
5845;SDS011;2949;50.778;7.094;2024-01-15T03:58:47;32.37;;;11.90;;
5845;SDS011;2949;50.778;7.094;2024-01-15T04:01:13;28.73;;;12.10;;
5845;SDS011;2949;50.778;7.094;2024-01-15T04:03:38;33.27;;;13.50;;
5845;SDS011;2949;50.778;7.094;2024-01-15T04:06:04;24.93;;;12.97;;
5845;SDS011;2949;50.778;7.094;2024-01-15T04:08:30;30.27;;;14.67;;
5845;SDS011;2949;50.778;7.094;2024-01-15T04:10:55;36.27;;;14.00;;
5845;SDS011;2949;50.778;7.094;2024-01-15T04:13:21;23.90;;;12.07;;
5845;SDS011;2949;50.778;7.094;2024-01-15T04:15:47;31.40;;;13.47;;
5845;SDS011;2949;50.778;7.094;2024-01-15T04:18:12;34.37;;;15.03;;
5845;SDS011;2949;50.778;7.094;2024-01-15T04:20:38;28.23;;;12.30;;
5845;SDS011;2949;50.778;7.094;2024-01-15T04:23:04;30.73;;;12.63;;
5845;SDS011;2949;50.778;7.094;2024-01-15T04:25:30;34.23;;;12.97;;
5845;SDS011;2949;50.778;7.094;2024-01-15T04:27:55;30.13;;;12.43;;
5845;SDS011;2949;50.778;7.094;2024-01-15T04:30:21;27.33;;;12.53;;
5845;SDS011;2949;50.778;7.094;2024-01-15T04:32:46;28.80;;;13.47;;
5845;SDS011;2949;50.778;7.094;2024-01-15T04:35:12;29.33;;;12.30;;
5845;SDS011;2949;50.778;7.094;2024-01-15T04:37:38;29.67;;;12.90;;
5845;SDS011;2949;50.778;7.094;2024-01-15T04:40:04;28.00;;;11.07;;
5845;SDS011;2949;50.778;7.094;2024-01-15T04:42:30;26.67;;;11.53;;
5845;SDS011;2949;50.778;7.094;2024-01-15T04:44:56;22.70;;;10.80;;
5845;SDS011;2949;50.778;7.094;2024-01-15T04:47:21;33.93;;;12.83;;
5845;SDS011;2949;50.778;7.094;2024-01-15T04:49:47;28.37;;;11.27;;
5845;SDS011;2949;50.778;7.094;2024-01-15T04:52:14;23.10;;;10.40;;
5845;SDS011;2949;50.778;7.094;2024-01-15T04:54:39;26.50;;;11.30;;
5845;SDS011;2949;50.778;7.094;2024-01-15T04:57:05;20.77;;;9.90;;
5845;SDS011;2949;50.778;7.094;2024-01-15T04:59:30;28.57;;;10.30;;
5845;SDS011;2949;50.778;7.094;2024-01-15T05:01:56;19.37;;;9.57;;
5845;SDS011;2949;50.778;7.094;2024-01-15T05:04:21;21.73;;;8.90;;
5845;SDS011;2949;50.778;7.094;2024-01-15T05:06:47;21.70;;;10.77;;
5845;SDS011;2949;50.778;7.094;2024-01-15T05:09:13;20.47;;;10.03;;
5845;SDS011;2949;50.778;7.094;2024-01-15T05:11:39;27.50;;;10.10;;
5845;SDS011;2949;50.778;7.094;2024-01-15T05:14:04;21.40;;;9.70;;
5845;SDS011;2949;50.778;7.094;2024-01-15T05:16:30;19.67;;;10.87;;
5845;SDS011;2949;50.778;7.094;2024-01-15T05:18:55;25.60;;;10.97;;
5845;SDS011;2949;50.778;7.094;2024-01-15T05:21:21;16.80;;;8.57;;
5845;SDS011;2949;50.778;7.094;2024-01-15T05:23:46;18.60;;;10.00;;
5845;SDS011;2949;50.778;7.094;2024-01-15T05:26:12;20.80;;;9.67;;
5845;SDS011;2949;50.778;7.094;2024-01-15T05:28:38;17.83;;;9.30;;
5845;SDS011;2949;50.778;7.094;2024-01-15T05:31:03;18.27;;;8.40;;
5845;SDS011;2949;50.778;7.094;2024-01-15T05:33:29;29.27;;;10.40;;
5845;SDS011;2949;50.778;7.094;2024-01-15T05:35:54;18.47;;;9.70;;
5845;SDS011;2949;50.778;7.094;2024-01-15T05:38:20;15.90;;;8.93;;
5845;SDS011;2949;50.778;7.094;2024-01-15T05:40:46;21.37;;;11.20;;
5845;SDS011;2949;50.778;7.094;2024-01-15T05:43:11;21.57;;;10.17;;
5845;SDS011;2949;50.778;7.094;2024-01-15T05:45:38;28.90;;;10.50;;
5845;SDS011;2949;50.778;7.094;2024-01-15T05:48:04;21.93;;;10.90;;
5845;SDS011;2949;50.778;7.094;2024-01-15T05:50:30;27.70;;;11.67;;
5845;SDS011;2949;50.778;7.094;2024-01-15T05:52:55;22.57;;;11.10;;
5845;SDS011;2949;50.778;7.094;2024-01-15T05:55:21;25.97;;;10.97;;
5845;SDS011;2949;50.778;7.094;2024-01-15T05:57:46;23.50;;;10.60;;
5845;SDS011;2949;50.778;7.094;2024-01-15T06:00:12;37.77;;;11.00;;
5845;SDS011;2949;50.778;7.094;2024-01-15T06:02:38;24.97;;;11.70;;
5845;SDS011;2949;50.778;7.094;2024-01-15T06:05:04;25.30;;;10.67;;
5845;SDS011;2949;50.778;7.094;2024-01-15T06:07:31;20.20;;;10.70;;
5845;SDS011;2949;50.778;7.094;2024-01-15T06:09:56;22.93;;;10.80;;
5845;SDS011;2949;50.778;7.094;2024-01-15T06:12:22;22.77;;;11.40;;
5845;SDS011;2949;50.778;7.094;2024-01-15T06:14:48;20.10;;;10.00;;
5845;SDS011;2949;50.778;7.094;2024-01-15T06:17:13;24.07;;;11.07;;
5845;SDS011;2949;50.778;7.094;2024-01-15T06:19:39;18.50;;;9.17;;
5845;SDS011;2949;50.778;7.094;2024-01-15T06:22:05;18.27;;;10.07;;
5845;SDS011;2949;50.778;7.094;2024-01-15T06:24:30;15.50;;;9.53;;
5845;SDS011;2949;50.778;7.094;2024-01-15T06:26:56;22.50;;;10.83;;
5845;SDS011;2949;50.778;7.094;2024-01-15T06:29:21;20.80;;;10.40;;
5845;SDS011;2949;50.778;7.094;2024-01-15T06:31:49;21.57;;;11.10;;
5845;SDS011;2949;50.778;7.094;2024-01-15T06:34:14;27.63;;;10.10;;
5845;SDS011;2949;50.778;7.094;2024-01-15T06:36:40;25.10;;;10.90;;
5845;SDS011;2949;50.778;7.094;2024-01-15T06:39:05;18.40;;;10.50;;
5845;SDS011;2949;50.778;7.094;2024-01-15T06:41:31;27.17;;;11.43;;
5845;SDS011;2949;50.778;7.094;2024-01-15T06:43:56;27.77;;;12.00;;
5845;SDS011;2949;50.778;7.094;2024-01-15T06:46:22;20.40;;;10.07;;
5845;SDS011;2949;50.778;7.094;2024-01-15T06:48:49;22.33;;;11.40;;
5845;SDS011;2949;50.778;7.094;2024-01-15T06:51:15;20.00;;;10.47;;
5845;SDS011;2949;50.778;7.094;2024-01-15T06:53:41;23.20;;;11.90;;
5845;SDS011;2949;50.778;7.094;2024-01-15T06:56:07;27.10;;;11.07;;
5845;SDS011;2949;50.778;7.094;2024-01-15T06:58:33;21.13;;;11.80;;
5845;SDS011;2949;50.778;7.094;2024-01-15T07:00:58;28.30;;;11.40;;
5845;SDS011;2949;50.778;7.094;2024-01-15T07:03:25;17.40;;;10.90;;
5845;SDS011;2949;50.778;7.094;2024-01-15T07:05:50;20.77;;;11.57;;
5845;SDS011;2949;50.778;7.094;2024-01-15T07:08:16;21.57;;;10.90;;
5845;SDS011;2949;50.778;7.094;2024-01-15T07:10:42;27.70;;;11.83;;
5845;SDS011;2949;50.778;7.094;2024-01-15T07:13:07;22.00;;;11.80;;
5845;SDS011;2949;50.778;7.094;2024-01-15T07:15:33;28.13;;;12.50;;
5845;SDS011;2949;50.778;7.094;2024-01-15T07:17:59;22.40;;;11.80;;
5845;SDS011;2949;50.778;7.094;2024-01-15T07:20:24;26.10;;;12.07;;
5845;SDS011;2949;50.778;7.094;2024-01-15T07:22:50;26.83;;;13.00;;
5845;SDS011;2949;50.778;7.094;2024-01-15T07:25:16;24.40;;;12.33;;
5845;SDS011;2949;50.778;7.094;2024-01-15T07:27:42;35.80;;;12.87;;
5845;SDS011;2949;50.778;7.094;2024-01-15T07:30:09;26.10;;;13.13;;
5845;SDS011;2949;50.778;7.094;2024-01-15T07:32:36;26.93;;;12.40;;
5845;SDS011;2949;50.778;7.094;2024-01-15T07:35:01;26.47;;;11.23;;
5845;SDS011;2949;50.778;7.094;2024-01-15T07:37:27;27.60;;;13.23;;
5845;SDS011;2949;50.778;7.094;2024-01-15T07:39:53;25.47;;;12.50;;
5845;SDS011;2949;50.778;7.094;2024-01-15T07:42:19;22.70;;;11.20;;
5845;SDS011;2949;50.778;7.094;2024-01-15T07:44:44;23.73;;;11.97;;
5845;SDS011;2949;50.778;7.094;2024-01-15T07:47:10;17.87;;;10.97;;
5845;SDS011;2949;50.778;7.094;2024-01-15T07:49:35;25.07;;;11.27;;
5845;SDS011;2949;50.778;7.094;2024-01-15T07:52:01;22.20;;;10.93;;
5845;SDS011;2949;50.778;7.094;2024-01-15T07:54:26;28.10;;;11.10;;
5845;SDS011;2949;50.778;7.094;2024-01-15T07:56:59;20.20;;;10.10;;
5845;SDS011;2949;50.778;7.094;2024-01-15T07:59:25;31.43;;;11.90;;
5845;SDS011;2949;50.778;7.094;2024-01-15T08:01:52;24.93;;;12.30;;
5845;SDS011;2949;50.778;7.094;2024-01-15T08:04:18;29.47;;;12.50;;
5845;SDS011;2949;50.778;7.094;2024-01-15T08:06:44;22.87;;;11.57;;
5845;SDS011;2949;50.778;7.094;2024-01-15T08:09:10;28.73;;;11.80;;
5845;SDS011;2949;50.778;7.094;2024-01-15T08:11:35;25.33;;;9.70;;
5845;SDS011;2949;50.778;7.094;2024-01-15T08:14:01;24.97;;;10.03;;
5845;SDS011;2949;50.778;7.094;2024-01-15T08:16:27;29.80;;;9.23;;
5845;SDS011;2949;50.778;7.094;2024-01-15T08:18:53;22.17;;;10.20;;
5845;SDS011;2949;50.778;7.094;2024-01-15T08:21:18;22.97;;;9.70;;
5845;SDS011;2949;50.778;7.094;2024-01-15T08:23:44;20.60;;;10.67;;
5845;SDS011;2949;50.778;7.094;2024-01-15T08:26:10;16.80;;;9.03;;
5845;SDS011;2949;50.778;7.094;2024-01-15T08:28:36;21.23;;;8.37;;
5845;SDS011;2949;50.778;7.094;2024-01-15T08:31:01;20.10;;;8.63;;
5845;SDS011;2949;50.778;7.094;2024-01-15T08:33:28;19.50;;;8.87;;
5845;SDS011;2949;50.778;7.094;2024-01-15T08:35:54;17.00;;;8.57;;
5845;SDS011;2949;50.778;7.094;2024-01-15T08:38:19;22.10;;;8.90;;
5845;SDS011;2949;50.778;7.094;2024-01-15T08:40:45;17.47;;;8.30;;
5845;SDS011;2949;50.778;7.094;2024-01-15T08:43:11;22.47;;;9.57;;
5845;SDS011;2949;50.778;7.094;2024-01-15T08:45:36;16.83;;;8.60;;
5845;SDS011;2949;50.778;7.094;2024-01-15T08:48:02;16.10;;;8.07;;
5845;SDS011;2949;50.778;7.094;2024-01-15T08:50:29;19.40;;;8.53;;
5845;SDS011;2949;50.778;7.094;2024-01-15T08:52:56;18.67;;;8.47;;
5845;SDS011;2949;50.778;7.094;2024-01-15T08:55:22;26.63;;;8.70;;
5845;SDS011;2949;50.778;7.094;2024-01-15T08:57:48;25.53;;;9.77;;
5845;SDS011;2949;50.778;7.094;2024-01-15T09:00:14;23.20;;;9.70;;
5845;SDS011;2949;50.778;7.094;2024-01-15T09:02:40;28.17;;;8.50;;
5845;SDS011;2949;50.778;7.094;2024-01-15T09:05:05;26.40;;;9.67;;
5845;SDS011;2949;50.778;7.094;2024-01-15T09:07:31;19.33;;;8.47;;
5845;SDS011;2949;50.778;7.094;2024-01-15T09:09:57;21.97;;;8.77;;
5845;SDS011;2949;50.778;7.094;2024-01-15T09:12:24;20.33;;;8.67;;
5845;SDS011;2949;50.778;7.094;2024-01-15T09:14:50;27.73;;;8.20;;
5845;SDS011;2949;50.778;7.094;2024-01-15T09:17:17;17.83;;;8.10;;
5845;SDS011;2949;50.778;7.094;2024-01-15T09:19:42;21.43;;;9.70;;
5845;SDS011;2949;50.778;7.094;2024-01-15T09:22:08;20.27;;;9.43;;
5845;SDS011;2949;50.778;7.094;2024-01-15T09:24:33;21.20;;;8.67;;
5845;SDS011;2949;50.778;7.094;2024-01-15T09:26:59;20.53;;;10.33;;
5845;SDS011;2949;50.778;7.094;2024-01-15T09:29:25;20.90;;;8.70;;
5845;SDS011;2949;50.778;7.094;2024-01-15T09:31:50;13.60;;;7.90;;
5845;SDS011;2949;50.778;7.094;2024-01-15T09:34:17;18.13;;;9.13;;
5845;SDS011;2949;50.778;7.094;2024-01-15T09:36:42;26.67;;;7.63;;
5845;SDS011;2949;50.778;7.094;2024-01-15T09:39:08;21.37;;;7.37;;
5845;SDS011;2949;50.778;7.094;2024-01-15T09:41:36;13.63;;;6.80;;
5845;SDS011;2949;50.778;7.094;2024-01-15T09:44:02;15.57;;;7.23;;
5845;SDS011;2949;50.778;7.094;2024-01-15T09:46:29;23.10;;;7.60;;
5845;SDS011;2949;50.778;7.094;2024-01-15T09:48:56;15.30;;;7.17;;
5845;SDS011;2949;50.778;7.094;2024-01-15T09:51:22;14.40;;;7.03;;
5845;SDS011;2949;50.778;7.094;2024-01-15T09:53:49;14.00;;;6.93;;
5845;SDS011;2949;50.778;7.094;2024-01-15T09:56:15;17.97;;;7.00;;
5845;SDS011;2949;50.778;7.094;2024-01-15T09:58:41;11.63;;;7.20;;
5845;SDS011;2949;50.778;7.094;2024-01-15T10:01:07;16.30;;;7.13;;
5845;SDS011;2949;50.778;7.094;2024-01-15T10:03:34;21.80;;;8.00;;
5845;SDS011;2949;50.778;7.094;2024-01-15T10:05:59;13.63;;;6.90;;
5845;SDS011;2949;50.778;7.094;2024-01-15T10:08:26;21.30;;;7.83;;
5845;SDS011;2949;50.778;7.094;2024-01-15T10:10:52;12.13;;;6.37;;
5845;SDS011;2949;50.778;7.094;2024-01-15T10:13:17;13.63;;;7.40;;
5845;SDS011;2949;50.778;7.094;2024-01-15T10:15:46;15.90;;;7.13;;
5845;SDS011;2949;50.778;7.094;2024-01-15T10:18:12;12.90;;;7.07;;
5845;SDS011;2949;50.778;7.094;2024-01-15T10:20:39;16.13;;;7.57;;
5845;SDS011;2949;50.778;7.094;2024-01-15T10:23:04;11.43;;;7.70;;
5845;SDS011;2949;50.778;7.094;2024-01-15T10:25:30;17.67;;;8.80;;
5845;SDS011;2949;50.778;7.094;2024-01-15T10:27:59;15.50;;;8.30;;
5845;SDS011;2949;50.778;7.094;2024-01-15T10:30:26;13.23;;;7.93;;
5845;SDS011;2949;50.778;7.094;2024-01-15T10:33:01;12.37;;;8.47;;
5845;SDS011;2949;50.778;7.094;2024-01-15T10:35:32;16.37;;;8.27;;
5845;SDS011;2949;50.778;7.094;2024-01-15T10:37:59;14.83;;;8.13;;
5845;SDS011;2949;50.778;7.094;2024-01-15T10:40:28;14.30;;;7.57;;
5845;SDS011;2949;50.778;7.094;2024-01-15T10:42:54;8.80;;;7.20;;
5845;SDS011;2949;50.778;7.094;2024-01-15T10:45:19;18.07;;;7.43;;
5845;SDS011;2949;50.778;7.094;2024-01-15T10:47:45;9.67;;;5.20;;
5845;SDS011;2949;50.778;7.094;2024-01-15T10:50:11;8.30;;;5.40;;
5845;SDS011;2949;50.778;7.094;2024-01-15T10:52:38;11.80;;;7.40;;
5845;SDS011;2949;50.778;7.094;2024-01-15T10:55:08;13.90;;;8.10;;
5845;SDS011;2949;50.778;7.094;2024-01-15T10:57:34;10.40;;;7.20;;
5845;SDS011;2949;50.778;7.094;2024-01-15T11:00:06;14.33;;;7.57;;
5845;SDS011;2949;50.778;7.094;2024-01-15T11:02:35;12.90;;;8.23;;
5845;SDS011;2949;50.778;7.094;2024-01-15T11:05:02;10.77;;;7.20;;
5845;SDS011;2949;50.778;7.094;2024-01-15T11:07:29;12.17;;;6.50;;
5845;SDS011;2949;50.778;7.094;2024-01-15T11:09:55;11.00;;;6.70;;
5845;SDS011;2949;50.778;7.094;2024-01-15T11:12:23;10.37;;;6.37;;
5845;SDS011;2949;50.778;7.094;2024-01-15T11:14:49;8.37;;;6.10;;
5845;SDS011;2949;50.778;7.094;2024-01-15T11:17:15;9.77;;;5.57;;
5845;SDS011;2949;50.778;7.094;2024-01-15T11:24:56;13.63;;;7.33;;
5845;SDS011;2949;50.778;7.094;2024-01-15T11:27:41;9.73;;;6.13;;
5845;SDS011;2949;50.778;7.094;2024-01-15T11:30:08;12.93;;;8.50;;
5845;SDS011;2949;50.778;7.094;2024-01-15T11:32:38;10.73;;;6.70;;
5845;SDS011;2949;50.778;7.094;2024-01-15T11:35:06;10.97;;;7.67;;
5845;SDS011;2949;50.778;7.094;2024-01-15T11:40:21;11.63;;;7.63;;
5845;SDS011;2949;50.778;7.094;2024-01-15T11:42:48;11.13;;;8.00;;
5845;SDS011;2949;50.778;7.094;2024-01-15T11:45:15;10.63;;;7.77;;
5845;SDS011;2949;50.778;7.094;2024-01-15T11:50:42;13.83;;;9.10;;
5845;SDS011;2949;50.778;7.094;2024-01-15T11:53:17;10.77;;;7.30;;
5845;SDS011;2949;50.778;7.094;2024-01-15T11:56:16;13.70;;;8.10;;
5845;SDS011;2949;50.778;7.094;2024-01-15T11:58:42;13.07;;;7.90;;
5845;SDS011;2949;50.778;7.094;2024-01-15T12:01:08;14.60;;;9.10;;
5845;SDS011;2949;50.778;7.094;2024-01-15T12:03:35;12.10;;;7.70;;
5845;SDS011;2949;50.778;7.094;2024-01-15T12:06:01;16.17;;;8.87;;
5845;SDS011;2949;50.778;7.094;2024-01-15T12:08:26;14.00;;;8.80;;
5845;SDS011;2949;50.778;7.094;2024-01-15T12:10:52;15.67;;;8.33;;
5845;SDS011;2949;50.778;7.094;2024-01-15T12:13:18;14.93;;;9.30;;
5845;SDS011;2949;50.778;7.094;2024-01-15T12:15:45;21.27;;;7.60;;
5845;SDS011;2949;50.778;7.094;2024-01-15T12:18:12;15.40;;;8.10;;
5845;SDS011;2949;50.778;7.094;2024-01-15T12:20:39;14.70;;;9.27;;
5845;SDS011;2949;50.778;7.094;2024-01-15T12:23:05;14.83;;;7.07;;
5845;SDS011;2949;50.778;7.094;2024-01-15T12:25:31;15.73;;;7.67;;
5845;SDS011;2949;50.778;7.094;2024-01-15T12:27:58;14.80;;;7.97;;
5845;SDS011;2949;50.778;7.094;2024-01-15T12:30:28;8.43;;;6.47;;
5845;SDS011;2949;50.778;7.094;2024-01-15T12:32:56;20.23;;;7.33;;
5845;SDS011;2949;50.778;7.094;2024-01-15T12:35:23;17.43;;;6.70;;
5845;SDS011;2949;50.778;7.094;2024-01-15T12:37:52;14.63;;;7.03;;
5845;SDS011;2949;50.778;7.094;2024-01-15T12:40:19;9.83;;;5.40;;
5845;SDS011;2949;50.778;7.094;2024-01-15T12:42:45;8.47;;;5.43;;
5845;SDS011;2949;50.778;7.094;2024-01-15T12:45:11;13.27;;;4.70;;
5845;SDS011;2949;50.778;7.094;2024-01-15T12:47:37;14.17;;;5.03;;
5845;SDS011;2949;50.778;7.094;2024-01-15T12:50:07;10.17;;;4.73;;
5845;SDS011;2949;50.778;7.094;2024-01-15T12:52:37;8.40;;;4.60;;
5845;SDS011;2949;50.778;7.094;2024-01-15T12:55:05;11.77;;;4.20;;
5845;SDS011;2949;50.778;7.094;2024-01-15T12:57:33;8.57;;;4.43;;
5845;SDS011;2949;50.778;7.094;2024-01-15T13:00:00;20.83;;;5.20;;
5845;SDS011;2949;50.778;7.094;2024-01-15T13:02:25;9.73;;;4.10;;
5845;SDS011;2949;50.778;7.094;2024-01-15T13:04:51;10.17;;;3.53;;
5845;SDS011;2949;50.778;7.094;2024-01-15T13:07:17;16.73;;;5.43;;
5845;SDS011;2949;50.778;7.094;2024-01-15T13:09:42;17.77;;;5.00;;
5845;SDS011;2949;50.778;7.094;2024-01-15T13:12:08;17.47;;;4.93;;
5845;SDS011;2949;50.778;7.094;2024-01-15T13:14:34;7.33;;;4.23;;
5845;SDS011;2949;50.778;7.094;2024-01-15T13:17:00;16.53;;;5.17;;
5845;SDS011;2949;50.778;7.094;2024-01-15T13:19:25;12.83;;;6.30;;
5845;SDS011;2949;50.778;7.094;2024-01-15T13:21:51;20.03;;;7.67;;
5845;SDS011;2949;50.778;7.094;2024-01-15T13:24:18;12.30;;;5.50;;
5845;SDS011;2949;50.778;7.094;2024-01-15T13:26:44;16.23;;;5.43;;
5845;SDS011;2949;50.778;7.094;2024-01-15T13:29:09;8.07;;;3.47;;
5845;SDS011;2949;50.778;7.094;2024-01-15T13:31:35;12.57;;;3.83;;
5845;SDS011;2949;50.778;7.094;2024-01-15T13:34:00;4.13;;;3.10;;
5845;SDS011;2949;50.778;7.094;2024-01-15T13:36:26;7.73;;;3.57;;
5845;SDS011;2949;50.778;7.094;2024-01-15T13:38:52;9.20;;;3.30;;
5845;SDS011;2949;50.778;7.094;2024-01-15T13:41:18;4.87;;;2.83;;
5845;SDS011;2949;50.778;7.094;2024-01-15T13:43:48;7.30;;;3.10;;
5845;SDS011;2949;50.778;7.094;2024-01-15T13:46:15;5.63;;;2.63;;
5845;SDS011;2949;50.778;7.094;2024-01-15T13:48:42;6.10;;;3.13;;
5845;SDS011;2949;50.778;7.094;2024-01-15T13:51:08;3.93;;;2.87;;
5845;SDS011;2949;50.778;7.094;2024-01-15T13:53:33;7.83;;;3.50;;
5845;SDS011;2949;50.778;7.094;2024-01-15T13:55:59;5.57;;;3.63;;
5845;SDS011;2949;50.778;7.094;2024-01-15T13:58:24;8.40;;;2.57;;
5845;SDS011;2949;50.778;7.094;2024-01-15T14:00:50;12.80;;;3.90;;
5845;SDS011;2949;50.778;7.094;2024-01-15T14:03:17;5.40;;;3.13;;
5845;SDS011;2949;50.778;7.094;2024-01-15T14:05:42;8.77;;;3.13;;
5845;SDS011;2949;50.778;7.094;2024-01-15T14:08:08;9.87;;;3.00;;
5845;SDS011;2949;50.778;7.094;2024-01-15T14:10:33;15.60;;;3.63;;
5845;SDS011;2949;50.778;7.094;2024-01-15T14:12:59;4.40;;;3.33;;
5845;SDS011;2949;50.778;7.094;2024-01-15T14:15:25;8.60;;;3.50;;
5845;SDS011;2949;50.778;7.094;2024-01-15T14:17:52;9.80;;;3.37;;
5845;SDS011;2949;50.778;7.094;2024-01-15T14:20:17;7.33;;;4.07;;
5845;SDS011;2949;50.778;7.094;2024-01-15T14:22:43;9.33;;;2.93;;
5845;SDS011;2949;50.778;7.094;2024-01-15T14:25:08;3.43;;;2.93;;
5845;SDS011;2949;50.778;7.094;2024-01-15T14:27:34;6.30;;;2.87;;
5845;SDS011;2949;50.778;7.094;2024-01-15T14:30:01;3.00;;;2.70;;
5845;SDS011;2949;50.778;7.094;2024-01-15T14:32:27;5.40;;;2.07;;
5845;SDS011;2949;50.778;7.094;2024-01-15T14:34:52;8.80;;;2.27;;
5845;SDS011;2949;50.778;7.094;2024-01-15T14:37:18;4.50;;;1.93;;
5845;SDS011;2949;50.778;7.094;2024-01-15T14:39:43;3.30;;;1.50;;
5845;SDS011;2949;50.778;7.094;2024-01-15T14:42:09;12.80;;;2.60;;
5845;SDS011;2949;50.778;7.094;2024-01-15T14:44:34;4.57;;;2.77;;
5845;SDS011;2949;50.778;7.094;2024-01-15T14:47:00;4.50;;;3.40;;
5845;SDS011;2949;50.778;7.094;2024-01-15T14:49:25;4.07;;;2.40;;
5845;SDS011;2949;50.778;7.094;2024-01-15T14:51:51;7.37;;;2.53;;
5845;SDS011;2949;50.778;7.094;2024-01-15T14:54:16;1.97;;;1.80;;
5845;SDS011;2949;50.778;7.094;2024-01-15T14:56:42;2.40;;;2.20;;
5845;SDS011;2949;50.778;7.094;2024-01-15T14:59:08;9.13;;;2.30;;